createdAt,value
2023-05-03T00:01:58.180Z,6.90
2023-05-03T00:04:00.112Z,6.70
2023-05-03T00:06:15.413Z,6.70
2023-05-03T00:08:17.672Z,6.70
2023-05-03T00:10:19.677Z,6.60
2023-05-03T00:12:21.501Z,6.60
2023-05-03T00:14:23.408Z,6.50
2023-05-03T00:16:25.390Z,6.50
2023-05-03T00:18:27.468Z,6.50
2023-05-03T00:20:29.607Z,6.50
2023-05-03T00:22:32.380Z,6.40
2023-05-03T00:24:35.448Z,6.40
2023-05-03T00:26:37.356Z,6.50
2023-05-03T00:28:39.210Z,6.60
2023-05-03T00:30:41.081Z,6.50
2023-05-03T00:32:43.030Z,6.50
2023-05-03T00:34:45.877Z,6.40
2023-05-03T00:36:47.764Z,6.40
2023-05-03T00:38:49.745Z,6.60
2023-05-03T00:40:55.070Z,6.50
2023-05-03T00:42:56.952Z,6.50
2023-05-03T00:44:58.999Z,6.50
2023-05-03T00:47:01.338Z,6.40
2023-05-03T00:49:03.352Z,6.40
2023-05-03T00:51:06.514Z,6.40
2023-05-03T00:53:08.350Z,6.40
2023-05-03T00:55:11.526Z,6.30
2023-05-03T00:57:13.859Z,6.30
2023-05-03T00:59:15.900Z,6.20
2023-05-03T01:01:18.091Z,6.20
2023-05-03T01:03:20.108Z,6.40
2023-05-03T01:05:22.824Z,6.40
2023-05-03T01:07:38.171Z,6.40
2023-05-03T01:09:45.899Z,6.40
2023-05-03T01:12:12.648Z,6.50
2023-05-03T01:14:36.591Z,6.40
2023-05-03T01:16:47.765Z,6.30
2023-05-03T01:18:54.948Z,6.20
2023-05-03T01:20:59.342Z,6.30
2023-05-03T01:23:27.395Z,6.40
2023-05-03T01:25:29.334Z,6.40
2023-05-03T01:27:31.427Z,6.40
2023-05-03T01:29:33.222Z,6.40
2023-05-03T01:31:44.426Z,6.40
2023-05-03T01:34:17.170Z,6.20
2023-05-03T01:36:26.617Z,6.10
2023-05-03T01:38:33.428Z,6.10
2023-05-03T01:40:45.661Z,6.00
2023-05-03T01:42:48.154Z,6.10
2023-05-03T01:44:50.930Z,6.00
2023-05-03T01:46:52.991Z,6.00
2023-05-03T01:48:54.806Z,6.10
2023-05-03T01:50:56.734Z,6.10
2023-05-03T01:52:58.630Z,6.20
2023-05-03T01:55:00.528Z,6.10
2023-05-03T01:57:03.082Z,6.10
2023-05-03T01:59:05.289Z,6.00
2023-05-03T02:01:08.188Z,6.00
2023-05-03T02:03:10.256Z,6.10
2023-05-03T02:05:12.547Z,6.00
2023-05-03T02:07:14.475Z,5.90
2023-05-03T02:09:16.445Z,5.80
2023-05-03T02:11:18.387Z,5.80
2023-05-03T02:13:20.345Z,5.70
2023-05-03T02:15:22.241Z,5.70
2023-05-03T02:17:26.671Z,5.60
2023-05-03T02:19:28.808Z,5.70
2023-05-03T02:21:31.619Z,5.70
2023-05-03T02:23:33.496Z,5.70
2023-05-03T02:25:35.494Z,5.60
2023-05-03T02:27:37.339Z,5.60
2023-05-03T02:29:39.214Z,5.50
2023-05-03T02:31:41.146Z,5.40
2023-05-03T02:33:43.068Z,5.50
2023-05-03T02:35:44.933Z,5.50
2023-05-03T02:37:46.840Z,5.50
2023-05-03T02:39:48.706Z,5.50
2023-05-03T02:41:50.910Z,5.60
2023-05-03T02:43:52.811Z,5.80
2023-05-03T02:45:54.700Z,6.20
2023-05-03T02:47:56.619Z,6.50
2023-05-03T02:49:58.517Z,6.60
2023-05-03T02:52:00.480Z,6.60
2023-05-03T02:54:02.403Z,6.40
2023-05-03T02:56:04.458Z,6.20
2023-05-03T02:58:06.196Z,6.10
2023-05-03T03:00:10.895Z,6.10
2023-05-03T03:02:12.810Z,6.10
2023-05-03T03:04:15.834Z,6.10
2023-05-03T03:06:17.814Z,6.20
2023-05-03T03:08:19.905Z,6.20
2023-05-03T03:10:21.659Z,6.20
2023-05-03T03:12:23.623Z,6.20
2023-05-03T03:14:25.544Z,6.30
2023-05-03T03:16:27.618Z,6.50
2023-05-03T03:18:29.558Z,6.50
2023-05-03T03:20:31.789Z,6.60
2023-05-03T03:22:33.708Z,6.60
2023-05-03T03:24:35.973Z,6.70
2023-05-03T03:26:37.877Z,6.80
2023-05-03T03:28:39.831Z,6.90
2023-05-03T03:30:41.751Z,6.90
2023-05-03T03:32:43.713Z,7.00
2023-05-03T03:34:45.673Z,7.00
2023-05-03T03:36:47.544Z,7.10
2023-05-03T03:38:49.409Z,7.20
2023-05-03T03:40:52.776Z,7.30
2023-05-03T03:42:54.622Z,7.30
2023-05-03T03:44:57.023Z,7.40
2023-05-03T03:46:58.962Z,7.30
2023-05-03T03:49:00.904Z,7.40
2023-05-03T03:51:02.843Z,7.50
2023-05-03T03:53:04.827Z,7.60
2023-05-03T03:55:07.684Z,7.70
2023-05-03T03:57:10.233Z,7.80
2023-05-03T03:59:12.088Z,7.90
2023-05-03T04:01:14.160Z,7.90
2023-05-03T04:03:16.316Z,8.00
2023-05-03T04:05:18.369Z,8.20
2023-05-03T04:07:20.480Z,8.30
2023-05-03T04:09:22.277Z,8.40
2023-05-03T04:11:24.262Z,8.60
2023-05-03T04:13:26.438Z,8.60
2023-05-03T04:15:28.241Z,8.60
2023-05-03T04:17:30.202Z,8.60
2023-05-03T04:19:32.289Z,8.70
2023-05-03T04:21:34.127Z,8.80
2023-05-03T04:23:36.011Z,8.90
2023-05-03T04:25:39.136Z,9.10
2023-05-03T04:27:41.358Z,9.20
2023-05-03T04:29:43.546Z,9.20
2023-05-03T04:31:45.894Z,9.20
2023-05-03T04:33:47.835Z,9.30
2023-05-03T04:35:51.249Z,9.30
2023-05-03T04:37:53.189Z,9.20
2023-05-03T04:39:55.146Z,9.20
2023-05-03T04:41:58.509Z,9.20
2023-05-03T04:44:00.531Z,9.30
2023-05-03T04:46:03.948Z,9.30
2023-05-03T04:48:06.177Z,9.40
2023-05-03T04:50:08.711Z,9.40
2023-05-03T04:52:10.734Z,9.40
2023-05-03T04:54:12.580Z,9.50
2023-05-03T04:56:14.482Z,9.60
2023-05-03T04:58:22.609Z,9.60
2023-05-03T05:00:24.936Z,9.60
2023-05-03T05:02:27.549Z,9.70
2023-05-03T05:04:32.080Z,9.80
2023-05-03T05:06:34.014Z,9.90
2023-05-03T05:44:03.781Z,11.70
2023-05-03T05:46:05.710Z,12.40
2023-05-03T05:48:08.369Z,12.50
2023-05-03T05:50:17.455Z,12.50
2023-05-03T05:52:20.520Z,12.50
2023-05-03T05:54:22.365Z,12.60
2023-05-03T05:56:24.462Z,12.90
2023-05-03T05:58:26.299Z,13.10
2023-05-03T06:00:28.155Z,13.10
2023-05-03T06:02:30.085Z,13.20
2023-05-03T06:04:32.050Z,13.10
2023-05-03T06:06:33.916Z,13.10
2023-05-03T06:08:36.342Z,13.30
2023-05-03T06:10:38.226Z,13.30
2023-05-03T06:12:40.306Z,13.50
2023-05-03T06:14:51.691Z,13.50
2023-05-03T06:16:58.776Z,13.80
2023-05-03T06:19:01.390Z,13.90
2023-05-03T06:21:03.524Z,14.00
2023-05-03T06:23:05.429Z,14.10
2023-05-03T06:25:07.779Z,14.30
2023-05-03T06:27:09.695Z,14.50
2023-05-03T06:29:11.687Z,14.70
2023-05-03T06:31:13.499Z,14.50
2023-05-03T06:33:15.581Z,14.60
2023-05-03T06:35:19.506Z,14.80
2023-05-03T06:37:21.441Z,15.00
2023-05-03T06:39:23.413Z,15.20
2023-05-03T06:41:25.293Z,15.30
2023-05-03T06:43:27.162Z,15.30
2023-05-03T06:45:29.250Z,15.40
2023-05-03T06:47:31.165Z,15.60
2023-05-03T06:49:33.124Z,15.70
2023-05-03T06:51:35.050Z,16.00
2023-05-03T06:53:36.922Z,16.00
2023-05-03T06:55:38.765Z,16.10
2023-05-03T06:57:42.681Z,16.20
2023-05-03T06:59:44.562Z,16.30
2023-05-03T07:01:47.102Z,16.40
2023-05-03T07:03:49.190Z,16.50
2023-05-03T07:05:50.974Z,16.30
2023-05-03T07:07:52.877Z,16.30
2023-05-03T07:09:54.724Z,16.40
2023-05-03T07:11:56.527Z,16.60
2023-05-03T07:13:58.375Z,16.50
2023-05-03T07:16:03.352Z,16.60
2023-05-03T07:18:05.690Z,16.50
2023-05-03T07:20:08.172Z,16.60
2023-05-03T07:22:10.211Z,16.60
2023-05-03T07:24:12.937Z,16.50
2023-05-03T07:26:15.196Z,16.40
2023-05-03T07:28:17.262Z,16.60
2023-05-03T07:30:19.154Z,16.90
2023-05-03T07:32:22.620Z,17.00
2023-05-03T07:34:24.705Z,17.10
2023-05-03T07:36:26.581Z,17.30
2023-05-03T07:38:28.438Z,17.20
2023-05-03T07:40:33.215Z,17.30
2023-05-03T07:42:35.270Z,17.30
2023-05-03T07:44:37.157Z,17.30
2023-05-03T07:46:39.008Z,17.40
2023-05-03T07:48:43.280Z,17.50
2023-05-03T07:50:45.502Z,17.60
2023-05-03T07:52:51.198Z,17.60
2023-05-03T07:54:53.682Z,17.60
2023-05-03T07:56:55.755Z,17.70
2023-05-03T07:59:08.400Z,17.70
2023-05-03T08:01:11.597Z,17.80
2023-05-03T08:03:13.751Z,17.80
2023-05-03T08:05:16.392Z,17.80
2023-05-03T08:07:18.388Z,17.90
2023-05-03T08:09:20.759Z,18.00
2023-05-03T08:11:22.698Z,17.90
2023-05-03T08:13:24.583Z,18.10
2023-05-03T08:15:26.445Z,18.10
2023-05-03T08:17:28.665Z,18.10
2023-05-03T08:19:31.126Z,18.50
2023-05-03T08:21:33.632Z,18.30
2023-05-03T08:23:35.659Z,18.30
2023-05-03T08:25:37.837Z,18.50
2023-05-03T08:27:40.210Z,18.40
2023-05-03T08:29:42.080Z,18.50
2023-05-03T08:31:43.985Z,18.50
2023-05-03T08:33:45.861Z,18.70
2023-05-03T08:35:49.254Z,18.80
2023-05-03T08:37:51.311Z,18.80
2023-05-03T08:39:53.239Z,18.90
2023-05-03T08:41:55.516Z,19.10
2023-05-03T08:43:59.215Z,19.10
2023-05-03T08:46:01.146Z,19.20
2023-05-03T08:48:04.624Z,19.00
2023-05-03T08:50:08.330Z,18.70
2023-05-03T08:52:12.014Z,18.80
2023-05-03T08:54:18.342Z,18.80
2023-05-03T08:56:53.815Z,18.90
2023-05-03T08:58:55.859Z,19.00
2023-05-03T09:01:03.877Z,19.10
2023-05-03T09:03:07.631Z,19.20
2023-05-03T09:05:16.242Z,19.20
2023-05-03T09:07:20.028Z,19.10
2023-05-03T09:09:32.370Z,19.10
2023-05-03T09:11:36.087Z,19.10
2023-05-03T09:13:37.968Z,19.30
2023-05-03T09:15:40.024Z,19.20
2023-05-03T09:17:42.026Z,19.20
2023-05-03T09:19:53.608Z,19.50
2023-05-03T09:22:07.031Z,19.70
2023-05-03T09:24:19.627Z,19.80
2023-05-03T09:26:37.292Z,19.50
2023-05-03T09:28:43.521Z,19.50
2023-05-03T09:30:46.509Z,19.50
2023-05-03T09:32:48.930Z,19.40
2023-05-03T09:34:51.118Z,19.60
2023-05-03T09:36:53.103Z,19.30
2023-05-03T09:38:56.072Z,19.30
2023-05-03T09:40:58.437Z,19.30
2023-05-03T09:43:19.225Z,19.30
2023-05-03T09:45:24.444Z,19.30
2023-05-03T09:47:31.805Z,19.40
2023-05-03T09:49:34.980Z,19.70
2023-05-03T09:51:37.604Z,19.90
2023-05-03T09:53:40.523Z,20.00
2023-05-03T09:55:42.395Z,20.20
2023-05-03T09:57:47.720Z,20.00
2023-05-03T09:59:50.864Z,20.00
2023-05-03T10:01:58.821Z,19.90
2023-05-03T10:04:02.465Z,19.70
2023-05-03T10:06:11.005Z,19.60
2023-05-03T10:08:38.037Z,19.80
2023-05-03T10:10:44.132Z,19.90
2023-05-03T10:12:46.861Z,20.00
2023-05-03T10:14:51.883Z,19.90
2023-05-03T10:17:00.369Z,20.00
2023-05-03T10:19:37.487Z,19.90
2023-05-03T10:21:58.430Z,19.80
2023-05-03T10:24:13.474Z,20.00
2023-05-03T10:26:16.271Z,20.00
2023-05-03T10:28:18.576Z,19.80
2023-05-03T10:30:26.461Z,20.00
2023-05-03T10:32:33.292Z,20.00
2023-05-03T10:34:39.642Z,20.20
2023-05-03T10:36:49.699Z,20.10
2023-05-03T10:38:53.386Z,20.40
2023-05-03T10:40:56.800Z,20.20
2023-05-03T10:43:00.753Z,20.20
2023-05-03T10:45:04.058Z,20.00
2023-05-03T10:47:19.910Z,19.90
2023-05-03T10:49:26.672Z,20.10
2023-05-03T10:51:37.019Z,20.40
2023-05-03T10:53:43.525Z,20.60
2023-05-03T10:56:15.795Z,20.80
2023-05-03T10:58:18.013Z,20.80
2023-05-03T11:00:33.828Z,20.60
2023-05-03T11:02:40.557Z,20.60
2023-05-03T11:04:48.320Z,20.80
2023-05-03T11:06:52.101Z,20.90
2023-05-03T11:08:54.155Z,20.60
2023-05-03T11:11:00.663Z,20.70
2023-05-03T11:13:02.518Z,20.70
2023-05-03T11:15:05.001Z,20.80
2023-05-03T11:17:07.134Z,20.80
2023-05-03T11:19:09.281Z,21.00
2023-05-03T11:21:11.916Z,20.90
2023-05-03T11:23:14.378Z,20.90
2023-05-03T11:25:16.546Z,21.00
2023-05-03T11:27:24.741Z,21.00
2023-05-03T11:29:27.374Z,20.90
2023-05-03T11:31:29.337Z,20.90
2023-05-03T11:33:31.210Z,21.10
2023-05-03T11:35:33.179Z,21.20
2023-05-03T11:37:35.485Z,21.30
2023-05-03T11:39:37.663Z,21.20
2023-05-03T11:41:39.642Z,21.20
2023-05-03T11:43:45.434Z,21.00
2023-05-03T11:45:49.201Z,21.00
2023-05-03T11:47:52.298Z,21.00
2023-05-03T11:49:55.776Z,21.20
2023-05-03T11:51:57.923Z,21.30
2023-05-03T11:54:12.977Z,21.00
2023-05-03T11:56:24.083Z,20.70
2023-05-03T11:58:26.921Z,21.00
2023-05-03T12:00:30.121Z,21.20
2023-05-03T12:02:32.429Z,21.20
2023-05-03T12:04:34.562Z,21.30
2023-05-03T12:06:38.178Z,21.70
2023-05-03T12:10:43.594Z,21.40
2023-05-03T12:12:57.439Z,21.30
2023-05-03T12:15:03.846Z,21.30
2023-05-03T12:17:07.506Z,21.40
2023-05-03T12:19:10.174Z,21.40
2023-05-03T12:23:21.329Z,21.40
2023-05-03T12:25:25.974Z,21.40
2023-05-03T12:27:28.888Z,21.30
2023-05-03T12:29:34.494Z,21.30
2023-05-03T12:31:39.126Z,21.30
2023-05-03T12:33:43.651Z,21.30
2023-05-03T12:35:47.766Z,21.40
2023-05-03T12:37:51.106Z,21.20
2023-05-03T12:40:10.020Z,21.30
2023-05-03T12:42:15.159Z,21.30
2023-05-03T12:44:22.420Z,21.50
2023-05-03T12:46:34.748Z,21.40
2023-05-03T12:48:37.526Z,21.50
2023-05-03T12:50:43.427Z,21.50
2023-05-03T12:52:48.832Z,21.50
2023-05-03T12:54:55.999Z,21.50
2023-05-03T12:59:35.398Z,21.50
2023-05-03T13:03:33.840Z,21.60
2023-05-03T13:05:36.922Z,21.50
2023-05-03T13:07:43.018Z,21.70
2023-05-03T13:12:08.465Z,21.60
2023-05-03T13:14:13.425Z,21.70
2023-05-03T13:16:15.382Z,21.90
2023-05-03T13:18:19.441Z,22.00
2023-05-03T13:20:22.777Z,22.30
2023-05-03T13:22:24.729Z,22.40
2023-05-03T13:24:26.596Z,22.20
2023-05-03T13:26:29.753Z,22.30
2023-05-03T13:28:31.902Z,22.40
2023-05-03T13:30:34.431Z,22.40
2023-05-03T13:32:36.337Z,22.30
2023-05-03T13:34:38.242Z,22.20
2023-05-03T13:36:40.532Z,22.30
2023-05-03T13:38:42.518Z,22.50
2023-05-03T13:40:44.382Z,22.70
2023-05-03T13:42:46.253Z,22.80
2023-05-03T13:44:47.999Z,22.90
2023-05-03T13:46:50.036Z,23.10
2023-05-03T13:48:52.767Z,23.10
2023-05-03T13:50:54.679Z,23.30
2023-05-03T13:52:56.588Z,23.70
2023-05-03T13:55:00.574Z,23.80
2023-05-03T13:57:02.470Z,23.80
2023-05-03T13:59:06.846Z,24.00
2023-05-03T14:01:08.783Z,23.90
2023-05-03T14:03:10.951Z,24.40
2023-05-03T14:05:15.649Z,24.70
2023-05-03T14:07:17.633Z,25.30
2023-05-03T14:09:19.370Z,25.60
2023-05-03T14:11:21.871Z,25.90
2023-05-03T14:13:24.483Z,26.10
2023-05-03T14:15:26.391Z,26.90
2023-05-03T14:17:28.952Z,26.10
2023-05-03T14:19:30.978Z,26.80
2023-05-03T14:21:33.065Z,26.00
2023-05-03T14:23:34.953Z,26.30
2023-05-03T14:25:36.688Z,26.60
2023-05-03T14:27:38.952Z,27.10
2023-05-03T14:29:41.037Z,27.10
2023-05-03T14:31:43.075Z,27.40
2023-05-03T14:33:48.459Z,27.60
2023-05-03T14:35:50.486Z,27.40
2023-05-03T14:37:52.998Z,27.70
2023-05-03T14:39:54.844Z,27.70
2023-05-03T14:41:56.731Z,26.40
2023-05-03T14:43:58.603Z,25.90
2023-05-03T14:46:00.473Z,26.40
2023-05-03T14:48:03.578Z,26.60
2023-05-03T14:50:06.569Z,25.30
2023-05-03T14:52:08.994Z,24.10
2023-05-03T14:54:11.737Z,23.50
2023-05-03T14:56:13.690Z,22.60
2023-05-03T14:58:15.862Z,22.80
2023-05-03T15:00:18.495Z,23.40
2023-05-03T15:02:20.386Z,22.80
2023-05-03T15:04:23.680Z,21.80
2023-05-03T15:06:31.687Z,21.60
2023-05-03T15:08:33.618Z,21.40
2023-05-03T15:10:38.075Z,21.50
2023-05-03T15:12:40.131Z,21.10
2023-05-03T15:14:42.460Z,21.20
2023-05-03T15:16:44.656Z,21.50
2023-05-03T15:18:49.595Z,21.30
2023-05-03T15:20:51.546Z,21.10
2023-05-03T15:22:53.308Z,20.90
2023-05-03T15:24:55.294Z,21.50
2023-05-03T15:26:57.184Z,21.60
2023-05-03T15:28:59.010Z,21.70
2023-05-03T15:31:01.828Z,21.70
2023-05-03T15:33:04.913Z,22.20
2023-05-03T15:35:07.217Z,22.90
2023-05-03T15:37:12.243Z,21.90
2023-05-03T15:39:14.303Z,21.30
2023-05-03T15:41:16.162Z,21.30
2023-05-03T15:43:18.053Z,21.30
2023-05-03T15:45:20.852Z,21.40
2023-05-03T15:47:23.878Z,21.50
2023-05-03T15:49:26.161Z,21.60
2023-05-03T15:51:28.064Z,21.40
2023-05-03T15:53:30.077Z,21.20
2023-05-03T15:55:31.930Z,22.00
2023-05-03T15:57:34.057Z,23.00
2023-05-03T15:59:36.231Z,24.00
2023-05-03T16:01:38.104Z,25.10
2023-05-03T16:03:39.969Z,25.00
2023-05-03T16:05:41.915Z,25.00
2023-05-03T16:07:43.703Z,25.00
2023-05-03T16:09:46.592Z,24.80
2023-05-03T16:11:48.942Z,25.10
2023-05-03T16:13:50.993Z,25.10
2023-05-03T16:15:53.317Z,25.20
2023-05-03T16:17:55.403Z,24.40
2023-05-03T16:19:57.415Z,24.40
2023-05-03T16:21:59.284Z,24.50
2023-05-03T16:24:01.324Z,24.20
2023-05-03T16:26:19.313Z,23.90
2023-05-03T16:28:21.685Z,23.60
2023-05-03T16:30:23.542Z,23.80
2023-05-03T16:32:25.949Z,23.10
2023-05-03T16:34:28.055Z,23.20
2023-05-03T16:36:30.376Z,22.70
2023-05-03T16:38:32.413Z,22.50
2023-05-03T16:40:34.145Z,21.40
2023-05-03T16:42:36.542Z,20.30
2023-05-03T16:44:38.580Z,19.40
2023-05-03T16:46:40.974Z,19.00
2023-05-03T16:48:42.705Z,18.70
2023-05-03T16:50:44.577Z,18.50
2023-05-03T16:52:46.477Z,18.40
2023-05-03T16:54:48.321Z,18.20
2023-05-03T16:56:50.219Z,17.90
2023-05-03T16:58:52.904Z,17.70
2023-05-03T17:00:55.048Z,17.60
2023-05-03T17:02:57.104Z,17.50
2023-05-03T17:04:59.121Z,17.40
2023-05-03T17:07:01.164Z,17.20
2023-05-03T17:09:04.381Z,17.10
2023-05-03T17:11:11.728Z,17.00
2023-05-03T17:13:13.883Z,16.90
2023-05-03T17:15:16.900Z,16.70
2023-05-03T17:17:18.735Z,16.50
2023-05-03T17:19:20.895Z,16.50
2023-05-03T17:21:25.301Z,16.40
2023-05-03T17:23:27.505Z,16.20
2023-05-03T17:25:29.457Z,16.00
2023-05-03T17:27:31.530Z,15.80
2023-05-03T17:29:33.397Z,15.70
2023-05-03T17:31:35.559Z,15.60
2023-05-03T17:33:37.581Z,15.50
2023-05-03T17:35:39.598Z,15.40
2023-05-03T17:37:41.483Z,15.30
2023-05-03T17:39:43.440Z,15.10
2023-05-03T17:41:45.207Z,15.00
2023-05-03T17:43:49.597Z,14.90
2023-05-03T17:45:51.602Z,14.90
2023-05-03T17:47:53.569Z,14.80
2023-05-03T17:49:55.419Z,14.80
2023-05-03T17:51:57.309Z,14.80
2023-05-03T17:53:59.361Z,14.70
2023-05-03T17:56:01.231Z,14.60
2023-05-03T17:58:03.389Z,14.40
2023-05-03T18:00:05.927Z,14.40
2023-05-03T18:02:08.247Z,14.40
2023-05-03T18:04:10.227Z,14.30
2023-05-03T18:06:13.597Z,14.30
2023-05-03T18:08:17.070Z,14.30
2023-05-03T18:10:18.980Z,14.40
2023-05-03T18:12:20.958Z,14.30
2023-05-03T18:14:23.090Z,14.20
2023-05-03T18:16:25.022Z,14.30
2023-05-03T18:18:27.104Z,14.20
2023-05-03T18:20:29.025Z,14.20
2023-05-03T18:22:30.954Z,14.10
2023-05-03T18:24:32.872Z,14.20
2023-05-03T18:26:34.788Z,14.20
2023-05-03T18:28:37.703Z,14.20
2023-05-03T18:30:39.544Z,14.10
2023-05-03T18:32:42.365Z,14.20
2023-05-03T18:34:44.348Z,14.00
2023-05-03T18:36:47.604Z,13.90
2023-05-03T18:38:53.227Z,13.90
2023-05-03T18:40:55.967Z,13.90
2023-05-03T18:42:57.870Z,13.80
2023-05-03T18:44:59.832Z,13.70
2023-05-03T18:47:01.722Z,13.70
2023-05-03T18:49:04.960Z,13.60
2023-05-03T18:51:07.170Z,13.60
2023-05-03T18:53:10.704Z,13.50
2023-05-03T18:55:12.641Z,13.50
2023-05-03T18:57:14.842Z,13.40
2023-05-03T18:59:16.674Z,13.40
2023-05-03T19:01:18.638Z,13.30
2023-05-03T19:03:20.799Z,13.30
2023-05-03T19:05:22.713Z,13.20
2023-05-03T19:07:24.639Z,13.10
2023-05-03T19:09:27.180Z,13.10
2023-05-03T19:11:29.034Z,13.00
2023-05-03T19:13:30.864Z,12.90
2023-05-03T19:15:33.251Z,12.80
2023-05-03T19:17:35.152Z,12.70
2023-05-03T19:19:37.095Z,12.70
2023-05-03T19:21:42.234Z,12.70
2023-05-03T19:23:44.539Z,12.70
2023-05-03T19:25:46.385Z,12.70
2023-05-03T19:27:48.277Z,12.60
2023-05-03T19:29:50.220Z,12.70
2023-05-03T19:31:53.755Z,12.70
2023-05-03T19:33:55.952Z,12.70
2023-05-03T19:35:58.132Z,12.60
2023-05-03T19:38:00.003Z,12.60
2023-05-03T19:40:02.493Z,12.60
2023-05-03T19:42:04.654Z,12.50
2023-05-03T19:44:06.594Z,12.50
2023-05-03T19:46:08.689Z,12.50
2023-05-03T19:48:10.604Z,12.40
2023-05-03T19:50:12.682Z,12.40
2023-05-03T19:52:14.497Z,12.30
2023-05-03T19:54:16.433Z,12.10
2023-05-03T19:56:19.547Z,12.20
2023-05-03T19:58:21.517Z,12.10
2023-05-03T20:00:23.997Z,12.10
2023-05-03T20:02:25.916Z,12.10
2023-05-03T20:04:27.982Z,12.10
2023-05-03T20:06:29.937Z,12.10
2023-05-03T20:08:32.539Z,12.00
2023-05-03T20:10:36.671Z,12.00
2023-05-03T20:12:38.637Z,11.90
2023-05-03T20:14:40.812Z,11.90
2023-05-03T20:16:43.294Z,11.80
2023-05-03T20:18:45.408Z,11.70
2023-05-03T20:20:47.194Z,11.70
2023-05-03T20:22:49.640Z,11.70
2023-05-03T20:24:52.432Z,11.60
2023-05-03T20:26:54.515Z,11.60
2023-05-03T20:28:56.322Z,11.70
2023-05-03T20:30:58.085Z,11.70
2023-05-03T20:32:59.893Z,11.70
2023-05-03T20:35:02.285Z,11.60
2023-05-03T20:37:04.046Z,11.50
2023-05-03T20:39:05.863Z,11.50
2023-05-03T20:41:07.650Z,11.50
2023-05-03T20:43:10.208Z,11.60
2023-05-03T20:45:12.367Z,11.60
2023-05-03T20:47:14.143Z,11.50
2023-05-03T20:49:15.858Z,11.60
2023-05-03T20:51:17.722Z,11.50
2023-05-03T20:53:19.600Z,11.50
2023-05-03T20:55:21.433Z,11.50
2023-05-03T20:57:23.166Z,11.40
2023-05-03T20:59:24.995Z,11.40
2023-05-03T21:01:26.890Z,11.40
2023-05-03T21:03:28.827Z,11.40
2023-05-03T21:05:30.824Z,11.30
2023-05-03T21:07:32.551Z,11.30
2023-05-03T21:09:34.334Z,11.20
2023-05-03T21:11:36.205Z,11.10
2023-05-03T21:13:39.362Z,11.10
2023-05-03T21:15:42.833Z,10.90
2023-05-03T21:17:44.809Z,10.70
2023-05-03T21:19:46.622Z,10.60
2023-05-03T21:21:48.451Z,10.60
2023-05-03T21:23:50.981Z,10.50
2023-05-03T21:25:55.211Z,10.60
2023-05-03T21:27:57.859Z,10.70
2023-05-03T21:29:59.634Z,10.60
2023-05-03T21:32:01.613Z,10.60
2023-05-03T21:34:04.144Z,10.60
2023-05-03T21:36:07.112Z,10.50
2023-05-03T21:38:08.850Z,10.50
2023-05-03T21:40:11.178Z,10.40
2023-05-03T21:42:14.027Z,10.30
2023-05-03T21:44:15.789Z,10.30
2023-05-03T21:46:17.770Z,10.20
2023-05-03T21:48:19.897Z,10.20
2023-05-03T21:50:23.692Z,10.20
2023-05-03T21:52:25.474Z,10.10
2023-05-03T21:54:27.288Z,10.10
2023-05-03T21:56:29.036Z,10.10
2023-05-03T21:58:30.788Z,10.00
2023-05-03T22:00:33.070Z,10.00
2023-05-03T22:02:35.157Z,9.90
2023-05-03T22:04:37.057Z,9.70
2023-05-03T22:06:38.871Z,9.70
2023-05-03T22:08:40.648Z,9.60
2023-05-03T22:10:42.371Z,9.60
2023-05-03T22:12:44.342Z,9.50
2023-05-03T22:14:46.180Z,9.50
2023-05-03T22:16:48.028Z,9.40
2023-05-03T22:18:49.990Z,9.40
2023-05-03T22:20:52.356Z,9.30
2023-05-03T22:22:54.110Z,9.30
2023-05-03T22:24:59.044Z,9.40
2023-05-03T22:27:00.891Z,9.40
2023-05-03T22:29:02.655Z,9.40
2023-05-03T22:31:04.434Z,9.50
2023-05-03T22:33:06.758Z,9.50
2023-05-03T22:35:09.491Z,9.50
2023-05-03T22:37:11.495Z,9.40
2023-05-03T22:39:13.229Z,9.40
2023-05-03T22:41:15.098Z,9.30
2023-05-03T22:43:17.494Z,9.20
2023-05-03T22:45:19.224Z,9.20
2023-05-03T22:47:21.549Z,9.10
2023-05-03T22:49:23.358Z,9.10
2023-05-03T22:51:25.105Z,9.10
2023-05-03T22:53:26.990Z,9.10
2023-05-03T22:55:29.273Z,9.10
2023-05-03T22:57:31.117Z,9.00
2023-05-03T22:59:32.939Z,9.00
2023-05-03T23:01:34.799Z,8.90
2023-05-03T23:03:36.927Z,8.90
2023-05-03T23:05:38.749Z,8.80
2023-05-03T23:07:41.686Z,8.80
2023-05-03T23:09:44.093Z,8.70
2023-05-03T23:11:45.820Z,8.50
2023-05-03T23:13:47.631Z,8.50
2023-05-03T23:15:49.518Z,8.50
2023-05-03T23:17:51.328Z,8.40
2023-05-03T23:19:53.653Z,8.40
2023-05-03T23:21:55.375Z,8.40
2023-05-03T23:23:57.108Z,8.40
2023-05-03T23:25:58.920Z,8.40
2023-05-03T23:28:01.387Z,8.40
2023-05-03T23:30:03.834Z,8.30
2023-05-03T23:32:06.466Z,8.30
2023-05-03T23:34:08.732Z,8.40
2023-05-03T23:36:10.507Z,8.30
2023-05-03T23:38:12.282Z,8.30
2023-05-03T23:40:14.307Z,8.20
2023-05-03T23:42:16.036Z,8.30
2023-05-03T23:44:17.833Z,8.30
2023-05-03T23:46:19.587Z,8.20
2023-05-03T23:48:21.367Z,8.20
2023-05-03T23:50:23.148Z,8.30
2023-05-03T23:52:24.892Z,8.20
2023-05-03T23:54:27.379Z,8.20
2023-05-03T23:56:29.129Z,8.10
2023-05-03T23:58:31.051Z,8.10
